createdAt,value
2022-09-17T00:02:23.782Z,79.3
2022-09-17T00:12:23.779Z,81.2
2022-09-17T00:17:23.768Z,84.2
2022-09-17T00:22:23.777Z,85.2
2022-09-17T00:32:23.786Z,87.1
2022-09-17T00:37:23.777Z,87.6
2022-09-17T00:42:23.768Z,88.1
2022-09-17T00:47:23.793Z,89.6
2022-09-17T00:52:23.798Z,88.8
2022-09-17T00:57:23.785Z,89.4
2022-09-17T01:02:23.842Z,89.2
2022-09-17T01:07:23.934Z,87.9
2022-09-17T01:12:23.808Z,86.6
2022-09-17T01:17:23.803Z,87.7
2022-09-17T01:22:23.801Z,90.6
2022-09-17T01:32:23.797Z,91.3
2022-09-17T01:37:26.785Z,90.9
2022-09-17T01:47:23.801Z,95.8
2022-09-17T01:52:23.802Z,94.7
2022-09-17T01:57:23.808Z,92.9
2022-09-17T02:02:23.849Z,94.3
2022-09-17T02:07:23.811Z,96.3
2022-09-17T02:12:23.819Z,97.0
2022-09-17T02:22:23.817Z,98.7
2022-09-17T02:42:23.842Z,98.7
2022-09-17T02:52:23.835Z,100.0
2022-09-17T02:57:23.836Z,97.5
2022-09-17T03:02:23.936Z,96.7
2022-09-17T03:07:23.837Z,98.2
2022-09-17T03:12:23.827Z,98.1
2022-09-17T03:22:23.839Z,98.0
2022-09-17T03:37:23.845Z,98.0
2022-09-17T03:47:23.847Z,98.0
2022-09-17T03:57:23.853Z,97.1
2022-09-17T04:02:24.039Z,97.8
2022-09-17T04:07:23.853Z,98.4
2022-09-17T04:12:23.868Z,97.2
2022-09-17T04:17:23.867Z,93.1
2022-09-17T04:22:23.872Z,91.9
2022-09-17T04:27:23.875Z,90.7
2022-09-17T04:32:23.858Z,93.0
2022-09-17T04:37:23.861Z,92.5
2022-09-17T04:42:23.871Z,89.5
2022-09-17T04:47:23.868Z,89.7
2022-09-17T04:52:26.553Z,92.7
2022-09-17T04:57:23.874Z,93.0
2022-09-17T05:07:23.875Z,93.8
2022-09-17T05:12:23.860Z,93.5
2022-09-17T05:17:23.873Z,93.1
2022-09-17T05:22:23.878Z,93.5
2022-09-17T05:32:23.881Z,92.3
2022-09-17T05:47:23.881Z,91.0
2022-09-17T05:57:23.895Z,87.5
2022-09-17T06:02:23.900Z,88.6
2022-09-17T06:12:23.899Z,92.3
2022-09-17T06:17:26.420Z,91.3
2022-09-17T06:27:23.901Z,90.9
2022-09-17T06:32:23.900Z,92.0
2022-09-17T06:42:23.908Z,91.2
2022-09-17T06:52:23.916Z,91.2
2022-09-17T06:57:23.913Z,90.4
2022-09-17T07:02:24.004Z,88.5
2022-09-17T07:12:23.933Z,86.6
2022-09-17T07:17:23.913Z,87.0
2022-09-17T07:22:23.917Z,85.9
2022-09-17T07:27:23.922Z,85.3
2022-09-17T07:32:23.927Z,83.9
2022-09-17T07:37:23.935Z,82.7
2022-09-17T07:42:23.929Z,81.5
2022-09-17T07:47:23.925Z,79.6
2022-09-17T07:52:23.921Z,78.4
2022-09-17T07:57:23.921Z,77.6
2022-09-17T08:02:24.569Z,76.9
2022-09-17T08:07:23.939Z,76.0
2022-09-17T08:12:23.939Z,74.8
2022-09-17T08:17:23.938Z,73.5
2022-09-17T08:22:23.935Z,71.8
2022-09-17T08:27:23.931Z,70.8
2022-09-17T08:32:23.951Z,69.1
2022-09-17T08:42:23.932Z,68.1
2022-09-17T08:47:23.947Z,65.2
2022-09-17T08:52:23.957Z,66.9
2022-09-17T08:57:23.947Z,65.9
2022-09-17T09:07:23.946Z,63.4
2022-09-17T09:12:23.957Z,62.8
2022-09-17T09:17:23.963Z,61.6
2022-09-17T09:22:23.956Z,61.5
2022-09-17T09:32:23.958Z,56.9
2022-09-17T09:37:23.955Z,56.8
2022-09-17T09:42:23.965Z,55.8
2022-09-17T09:47:23.971Z,54.8
2022-09-17T09:52:23.984Z,53.9
2022-09-17T09:57:23.962Z,52.7
2022-09-17T10:02:24.116Z,54.4
2022-09-17T10:07:23.978Z,67.0
2022-09-17T10:12:23.973Z,76.7
2022-09-17T10:17:23.989Z,80.3
2022-09-17T10:22:23.983Z,78.5
2022-09-17T10:27:23.975Z,75.4
2022-09-17T10:32:23.983Z,77.7
2022-09-17T10:37:23.989Z,77.3
2022-09-17T10:42:23.992Z,81.2
2022-09-17T10:47:23.996Z,81.7
2022-09-17T10:52:24.003Z,88.8
2022-09-17T10:57:24.666Z,90.8
2022-09-17T11:02:24.116Z,95.4
2022-09-17T11:07:23.990Z,93.9
2022-09-17T11:12:24.015Z,86.2
2022-09-17T11:17:23.988Z,77.6
2022-09-17T11:22:24.017Z,77.3
2022-09-17T11:27:24.004Z,78.0
2022-09-17T11:32:23.992Z,78.6
2022-09-17T11:37:24.262Z,73.9
2022-09-17T11:42:23.996Z,73.4
2022-09-17T11:47:24.022Z,72.6
2022-09-17T11:52:24.001Z,69.0
2022-09-17T11:57:24.010Z,67.5
2022-09-17T12:02:24.070Z,69.1
2022-09-17T12:07:24.010Z,66.7
2022-09-17T12:12:47.787Z,61.1
2022-09-17T12:17:24.033Z,64.8
2022-09-17T12:22:24.037Z,68.4
2022-09-17T12:27:24.021Z,76.6
2022-09-17T12:32:24.019Z,87.9
2022-09-17T12:37:24.019Z,84.2
2022-09-17T12:42:24.029Z,82.3
2022-09-17T12:47:24.027Z,78.3
2022-09-17T12:52:24.030Z,71.4
2022-09-17T12:57:24.029Z,71.8
2022-09-17T13:02:24.093Z,68.5
2022-09-17T13:07:24.027Z,66.1
2022-09-17T13:12:24.032Z,67.6
2022-09-17T13:17:24.032Z,66.3
2022-09-17T13:27:24.041Z,63.1
2022-09-17T13:32:24.047Z,65.6
2022-09-17T13:37:24.045Z,64.1
2022-09-17T13:42:24.039Z,61.9
2022-09-17T13:47:24.045Z,62.8
2022-09-17T13:52:24.043Z,61.9
2022-09-17T13:57:24.039Z,61.5
2022-09-17T14:02:26.349Z,60.1
2022-09-17T14:07:24.047Z,61.0
2022-09-17T14:12:24.055Z,57.1
2022-09-17T14:17:24.050Z,59.8
2022-09-17T14:22:24.060Z,58.4
2022-09-17T14:27:24.053Z,61.0
2022-09-17T14:37:24.068Z,62.0
2022-09-17T14:42:24.065Z,60.4
2022-09-17T14:47:24.073Z,58.8
2022-09-17T14:52:24.076Z,61.0
2022-09-17T14:57:24.065Z,59.1
2022-09-17T15:02:26.600Z,59.3
2022-09-17T15:12:24.070Z,56.7
2022-09-17T15:22:24.077Z,56.7
2022-09-17T15:27:24.112Z,54.0
2022-09-17T15:32:24.082Z,55.7
2022-09-17T15:37:24.087Z,53.5
2022-09-17T15:42:24.100Z,51.2
2022-09-17T15:47:24.093Z,53.1
2022-09-17T15:52:24.121Z,55.5
2022-09-17T15:57:24.095Z,59.7
2022-09-17T16:02:24.234Z,56.4
2022-09-17T16:07:24.090Z,56.7
2022-09-17T16:12:24.120Z,58.8
2022-09-17T16:17:24.105Z,59.7
2022-09-17T16:32:24.115Z,60.9
2022-09-17T16:37:24.108Z,61.6
2022-09-17T16:42:24.105Z,61.7
2022-09-17T16:47:24.104Z,61.2
2022-09-17T17:02:24.112Z,62.9
2022-09-17T17:12:24.125Z,61.5
2022-09-17T17:27:24.125Z,60.9
2022-09-17T17:32:24.126Z,60.0
2022-09-17T17:37:24.136Z,62.1
2022-09-17T17:42:24.223Z,61.6
2022-09-17T17:52:24.140Z,62.1
2022-09-17T17:57:24.141Z,62.6
2022-09-17T18:02:24.265Z,62.9
2022-09-17T18:07:24.142Z,63.9
2022-09-17T18:12:26.937Z,64.4
2022-09-17T18:17:24.156Z,65.3
2022-09-17T18:22:24.149Z,65.9
2022-09-17T18:27:24.139Z,66.5
2022-09-17T18:32:24.152Z,67.1
2022-09-17T18:47:24.173Z,69.6
2022-09-17T18:52:24.163Z,69.6
2022-09-17T18:57:24.173Z,69.7
2022-09-17T19:17:24.192Z,71.8
2022-09-17T19:22:24.162Z,72.8
2022-09-17T19:27:24.179Z,73.5
2022-09-17T19:32:24.176Z,73.7
2022-09-17T19:37:24.164Z,74.3
2022-09-17T19:42:24.170Z,75.8
2022-09-17T19:47:24.167Z,76.7
2022-09-17T19:52:24.188Z,77.3
2022-09-17T20:02:24.211Z,78.4
2022-09-17T20:07:24.184Z,79.6
2022-09-17T20:12:24.181Z,81.2
2022-09-17T20:27:24.185Z,82.4
2022-09-17T20:37:49.472Z,82.7
2022-09-17T21:02:24.202Z,85.3
2022-09-17T21:12:27.422Z,85.1
2022-09-17T21:17:24.207Z,85.5
2022-09-17T21:22:24.218Z,86.1
2022-09-17T21:27:24.208Z,86.9
2022-09-17T21:32:24.209Z,86.7
2022-09-17T21:52:24.365Z,87.7
2022-09-17T21:57:24.224Z,87.7
2022-09-17T22:02:24.293Z,86.5
2022-09-17T22:17:24.221Z,87.6
2022-09-17T22:22:24.235Z,88.7
2022-09-17T22:37:24.245Z,88.9
2022-09-17T22:42:24.241Z,89.2
2022-09-17T22:47:24.236Z,89.6
2022-09-17T23:02:24.293Z,89.8
2022-09-17T23:12:24.255Z,91.6
2022-09-17T23:22:24.243Z,91.4
2022-09-17T23:32:24.251Z,92.8
2022-09-17T23:42:24.255Z,93.9
2022-09-17T23:57:24.265Z,93.5
